createdAt,value
2018-10-07T00:02:06.567Z,17.93
2018-10-07T00:04:34.029Z,17.88
2018-10-07T00:07:01.500Z,17.88
2018-10-07T00:09:28.944Z,17.88
2018-10-07T00:11:56.368Z,17.77
2018-10-07T00:14:23.946Z,17.73
2018-10-07T00:16:51.723Z,17.73
2018-10-07T00:19:19.178Z,17.76
2018-10-07T00:21:46.664Z,17.79
2018-10-07T00:24:14.119Z,17.87
2018-10-07T00:26:41.547Z,17.94
2018-10-07T00:29:10.244Z,17.96
2018-10-07T00:31:37.686Z,17.95
2018-10-07T00:34:05.092Z,17.95
2018-10-07T00:36:32.641Z,17.99
2018-10-07T00:39:00.075Z,18.02
2018-10-07T00:41:27.474Z,18.05
2018-10-07T00:43:54.916Z,17.99
2018-10-07T00:46:22.395Z,17.99
2018-10-07T00:48:49.867Z,18.04
2018-10-07T00:51:17.394Z,18.13
2018-10-07T00:53:44.785Z,18.17
2018-10-07T00:56:12.242Z,18.21
2018-10-07T00:58:39.663Z,18.19
2018-10-07T01:01:07.143Z,18.14
2018-10-07T01:03:34.531Z,18.12
2018-10-07T01:06:02.008Z,18.11
2018-10-07T01:08:29.494Z,18.09
2018-10-07T01:10:56.952Z,18.10
2018-10-07T01:13:24.433Z,18.15
2018-10-07T01:15:51.903Z,18.20
2018-10-07T01:18:19.341Z,18.17
2018-10-07T01:20:46.747Z,18.18
2018-10-07T01:23:14.162Z,18.13
2018-10-07T01:25:41.620Z,18.16
2018-10-07T01:28:09.182Z,18.26
2018-10-07T01:30:36.661Z,18.27
2018-10-07T01:33:04.085Z,18.26
2018-10-07T01:35:31.508Z,18.27
2018-10-07T01:37:59.102Z,18.29
2018-10-07T01:40:26.502Z,18.27
2018-10-07T01:42:53.980Z,18.26
2018-10-07T01:45:21.397Z,18.27
2018-10-07T01:47:48.839Z,18.30
2018-10-07T01:50:16.484Z,18.37
2018-10-07T01:52:43.931Z,18.35
2018-10-07T01:55:11.325Z,18.38
2018-10-07T01:57:38.836Z,18.37
2018-10-07T02:00:06.310Z,18.39
2018-10-07T02:02:33.771Z,18.40
2018-10-07T02:05:01.245Z,18.40
2018-10-07T02:07:28.720Z,18.40
2018-10-07T02:09:56.134Z,18.46
2018-10-07T02:12:23.616Z,18.50
2018-10-07T02:14:51.064Z,18.56
2018-10-07T02:17:18.503Z,18.57
2018-10-07T02:19:46.093Z,18.55
2018-10-07T02:22:13.571Z,18.53
2018-10-07T02:24:41.101Z,18.53
2018-10-07T02:27:08.634Z,18.53
2018-10-07T02:29:36.166Z,18.48
2018-10-07T02:32:03.572Z,18.49
2018-10-07T02:34:31.035Z,18.43
2018-10-07T02:36:58.536Z,18.40
2018-10-07T02:39:25.958Z,18.40
2018-10-07T02:41:53.397Z,18.40
2018-10-07T02:44:20.864Z,18.39
2018-10-07T02:46:48.334Z,18.36
2018-10-07T02:49:15.784Z,18.36
2018-10-07T02:51:43.200Z,18.33
2018-10-07T02:54:10.631Z,18.37
2018-10-07T02:56:38.063Z,18.39
2018-10-07T02:59:06.035Z,18.43
2018-10-07T03:01:33.563Z,18.43
2018-10-07T03:04:00.964Z,18.47
2018-10-07T03:06:29.101Z,18.48
2018-10-07T03:08:56.544Z,18.53
2018-10-07T03:11:23.950Z,18.54
2018-10-07T03:13:51.363Z,18.58
2018-10-07T03:16:18.760Z,18.46
2018-10-07T03:18:46.207Z,18.40
2018-10-07T03:21:13.632Z,18.43
2018-10-07T03:23:41.032Z,18.44
2018-10-07T03:26:08.486Z,18.46
2018-10-07T03:28:35.908Z,18.47
2018-10-07T03:31:03.421Z,18.56
2018-10-07T03:33:30.899Z,18.61
2018-10-07T03:35:58.322Z,18.57
2018-10-07T03:38:25.794Z,18.61
2018-10-07T03:40:53.252Z,18.69
2018-10-07T03:43:20.703Z,18.72
2018-10-07T03:45:48.133Z,18.74
2018-10-07T03:48:15.534Z,18.76
2018-10-07T03:50:42.971Z,18.74
2018-10-07T03:53:10.593Z,18.71
2018-10-07T03:55:38.098Z,18.70
2018-10-07T03:58:05.521Z,18.63
2018-10-07T04:00:33.007Z,18.55
2018-10-07T04:03:00.433Z,18.44
2018-10-07T04:05:27.889Z,18.39
2018-10-07T04:07:55.373Z,18.38
2018-10-07T04:10:22.815Z,18.41
2018-10-07T04:12:50.323Z,18.37
2018-10-07T04:15:17.724Z,18.36
2018-10-07T04:17:45.197Z,18.41
2018-10-07T04:20:12.664Z,18.46
2018-10-07T04:22:40.120Z,18.50
2018-10-07T04:25:07.554Z,18.51
2018-10-07T04:27:35.014Z,18.47
2018-10-07T04:30:02.476Z,18.30
2018-10-07T04:32:29.946Z,18.15
2018-10-07T04:34:57.437Z,18.01
2018-10-07T04:37:24.881Z,17.89
2018-10-07T04:39:52.375Z,17.80
2018-10-07T04:42:19.791Z,17.77
2018-10-07T04:44:47.262Z,17.76
2018-10-07T04:47:14.690Z,17.64
2018-10-07T04:49:42.086Z,17.52
2018-10-07T04:52:09.561Z,17.52
2018-10-07T04:54:37.028Z,17.56
2018-10-07T04:57:04.434Z,17.53
2018-10-07T04:59:31.892Z,17.50
2018-10-07T05:01:59.395Z,17.41
2018-10-07T05:04:26.876Z,17.38
2018-10-07T05:06:54.317Z,17.41
2018-10-07T05:09:22.330Z,17.41
2018-10-07T05:11:49.751Z,17.43
2018-10-07T05:14:17.452Z,17.40
2018-10-07T05:16:45.131Z,17.48
2018-10-07T05:19:12.727Z,17.43
2018-10-07T05:21:40.166Z,17.42
2018-10-07T05:24:07.699Z,17.35
2018-10-07T05:26:35.180Z,17.21
2018-10-07T05:29:02.603Z,17.08
2018-10-07T05:31:30.073Z,16.97
2018-10-07T05:33:57.516Z,16.89
2018-10-07T05:36:24.945Z,16.90
2018-10-07T05:38:52.469Z,16.84
2018-10-07T05:41:19.938Z,16.77
2018-10-07T05:43:47.343Z,16.72
2018-10-07T05:46:14.828Z,16.75
2018-10-07T05:48:42.229Z,16.65
2018-10-07T05:51:09.679Z,16.66
2018-10-07T05:53:37.142Z,16.57
2018-10-07T05:56:04.599Z,16.48
2018-10-07T05:58:32.056Z,16.35
2018-10-07T06:00:59.514Z,16.27
2018-10-07T06:03:26.981Z,16.23
2018-10-07T06:05:54.450Z,16.14
2018-10-07T06:08:22.842Z,16.19
2018-10-07T06:10:50.313Z,16.05
2018-10-07T06:13:17.823Z,16.04
2018-10-07T06:15:45.312Z,16.06
2018-10-07T06:18:12.755Z,16.00
2018-10-07T06:20:40.200Z,15.90
2018-10-07T06:23:07.605Z,15.87
2018-10-07T06:25:35.014Z,15.94
2018-10-07T06:28:02.471Z,16.01
2018-10-07T06:30:29.980Z,15.99
2018-10-07T06:32:57.423Z,16.04
2018-10-07T06:35:24.905Z,16.14
2018-10-07T06:37:52.344Z,16.19
2018-10-07T06:40:19.778Z,16.25
2018-10-07T06:42:47.236Z,16.26
2018-10-07T06:45:14.791Z,16.30
2018-10-07T06:47:42.180Z,16.41
2018-10-07T06:50:09.651Z,16.50
2018-10-07T06:52:37.166Z,16.56
2018-10-07T06:55:04.611Z,16.56
2018-10-07T06:57:32.010Z,16.50
2018-10-07T06:59:59.451Z,16.49
2018-10-07T07:02:26.950Z,16.49
2018-10-07T07:04:54.417Z,16.51
2018-10-07T07:07:21.909Z,16.51
2018-10-07T07:09:49.323Z,16.60
2018-10-07T07:12:16.838Z,16.63
2018-10-07T07:14:44.247Z,16.67
2018-10-07T07:17:11.688Z,16.75
2018-10-07T07:19:39.176Z,16.78
2018-10-07T07:22:06.656Z,16.67
2018-10-07T07:24:34.125Z,16.62
2018-10-07T07:27:01.534Z,16.61
2018-10-07T07:29:29.515Z,16.59
2018-10-07T07:31:57.016Z,16.60
2018-10-07T07:34:24.826Z,16.70
2018-10-07T07:36:52.312Z,16.70
2018-10-07T07:39:19.942Z,16.70
2018-10-07T07:41:47.365Z,16.74
2018-10-07T07:44:14.829Z,16.75
2018-10-07T07:46:43.167Z,16.79
2018-10-07T07:49:10.640Z,16.76
2018-10-07T07:51:38.107Z,16.79
2018-10-07T07:54:05.540Z,16.85
2018-10-07T07:56:32.980Z,16.83
2018-10-07T07:59:00.464Z,16.87
2018-10-07T08:01:27.888Z,16.82
2018-10-07T08:03:55.315Z,16.65
2018-10-07T08:06:22.800Z,16.58
2018-10-07T08:08:50.313Z,16.58
2018-10-07T08:11:17.660Z,16.59
2018-10-07T08:13:45.133Z,16.68
2018-10-07T08:16:12.563Z,16.73
2018-10-07T08:18:40.067Z,16.70
2018-10-07T08:21:07.520Z,16.68
2018-10-07T08:23:34.981Z,16.69
2018-10-07T08:26:02.446Z,16.74
2018-10-07T08:28:29.879Z,16.73
2018-10-07T08:30:57.439Z,16.69
2018-10-07T08:33:24.874Z,16.70
2018-10-07T08:35:52.330Z,16.70
2018-10-07T08:38:19.881Z,16.58
2018-10-07T08:40:48.516Z,16.44
2018-10-07T08:43:16.013Z,16.34
2018-10-07T08:45:44.433Z,16.28
2018-10-07T08:48:11.895Z,16.37
2018-10-07T08:50:39.352Z,16.58
2018-10-07T08:53:06.799Z,16.60
2018-10-07T08:55:34.262Z,16.61
2018-10-07T08:58:01.717Z,16.70
2018-10-07T09:00:29.150Z,16.72
2018-10-07T09:02:56.632Z,16.70
2018-10-07T09:05:24.131Z,16.79
2018-10-07T09:07:51.719Z,16.72
2018-10-07T09:10:19.163Z,16.67
2018-10-07T09:12:46.662Z,16.70
2018-10-07T09:15:14.327Z,16.73
2018-10-07T09:17:41.767Z,16.78
2018-10-07T09:20:09.327Z,16.74
2018-10-07T09:22:36.879Z,16.78
2018-10-07T09:25:05.123Z,16.88
2018-10-07T09:27:32.766Z,16.91
2018-10-07T09:30:00.261Z,16.97
2018-10-07T09:32:27.781Z,16.95
2018-10-07T09:34:55.344Z,17.00
2018-10-07T09:37:22.732Z,16.97
2018-10-07T09:39:50.318Z,16.96
2018-10-07T09:42:17.784Z,16.94
2018-10-07T09:44:45.220Z,16.96
2018-10-07T09:47:12.719Z,16.97
2018-10-07T09:49:40.099Z,16.99
2018-10-07T09:52:07.777Z,17.04
2018-10-07T09:54:35.199Z,17.11
2018-10-07T09:57:02.881Z,17.10
2018-10-07T09:59:30.328Z,17.08
2018-10-07T10:01:57.783Z,17.16
2018-10-07T10:04:26.292Z,17.16
2018-10-07T10:06:53.717Z,17.12
2018-10-07T10:09:21.161Z,17.04
2018-10-07T10:11:48.627Z,17.06
2018-10-07T10:14:16.144Z,17.17
2018-10-07T10:16:43.753Z,17.29
2018-10-07T10:19:12.026Z,17.39
2018-10-07T10:21:39.520Z,17.48
2018-10-07T10:24:06.983Z,17.56
2018-10-07T10:26:34.632Z,17.63
2018-10-07T10:29:02.162Z,17.63
2018-10-07T10:31:29.600Z,17.72
2018-10-07T10:33:57.052Z,17.65
2018-10-07T10:36:25.379Z,17.74
2018-10-07T10:38:52.985Z,17.80
2018-10-07T10:41:21.033Z,17.84
2018-10-07T10:43:48.689Z,17.91
2018-10-07T10:46:16.342Z,18.00
2018-10-07T10:48:43.787Z,18.05
2018-10-07T10:51:12.344Z,18.03
2018-10-07T10:53:40.351Z,17.96
2018-10-07T10:56:07.833Z,17.88
2018-10-07T10:58:35.367Z,17.78
2018-10-07T11:01:02.912Z,17.81
2018-10-07T11:03:30.324Z,17.77
2018-10-07T11:05:57.819Z,17.88
2018-10-07T11:08:25.329Z,17.98
2018-10-07T11:10:52.824Z,17.99
2018-10-07T11:13:20.332Z,17.89
2018-10-07T11:15:47.914Z,17.91
2018-10-07T11:18:15.729Z,17.70
2018-10-07T11:20:43.762Z,17.67
2018-10-07T11:23:12.435Z,17.69
2018-10-07T11:25:39.981Z,17.84
2018-10-07T11:28:07.470Z,17.97
2018-10-07T11:30:35.066Z,17.91
2018-10-07T11:33:02.771Z,17.94
2018-10-07T11:35:30.360Z,18.14
2018-10-07T11:37:57.815Z,18.15
2018-10-07T11:40:25.471Z,18.28
2018-10-07T11:42:52.910Z,18.40
2018-10-07T11:45:20.359Z,18.36
2018-10-07T11:47:47.914Z,18.41
2018-10-07T11:50:15.370Z,18.49
2018-10-07T11:52:42.939Z,18.60
2018-10-07T11:55:09.873Z,18.56
2018-10-07T11:57:37.366Z,18.61
2018-10-07T12:00:04.784Z,18.55
2018-10-07T12:02:32.348Z,18.53
2018-10-07T12:04:59.755Z,18.57
2018-10-07T12:07:27.238Z,18.65
2018-10-07T12:09:54.687Z,18.60
2018-10-07T12:12:22.171Z,18.61
2018-10-07T12:14:49.618Z,18.67
2018-10-07T12:17:17.067Z,18.72
2018-10-07T12:19:44.494Z,18.80
2018-10-07T12:22:11.959Z,18.73
2018-10-07T12:24:39.450Z,18.69
2018-10-07T12:27:06.950Z,18.67
2018-10-07T12:29:34.645Z,18.51
2018-10-07T12:32:02.159Z,18.47
2018-10-07T12:34:29.607Z,18.55
2018-10-07T12:36:57.032Z,18.57
2018-10-07T12:39:24.888Z,18.56
2018-10-07T12:41:52.361Z,18.57
2018-10-07T12:44:20.534Z,18.48
2018-10-07T12:46:48.046Z,18.45
2018-10-07T12:49:15.511Z,18.54
2018-10-07T12:51:43.067Z,18.56
2018-10-07T12:54:10.606Z,18.71
2018-10-07T12:56:38.670Z,18.77
2018-10-07T12:59:06.192Z,18.92
2018-10-07T13:01:33.716Z,18.97
2018-10-07T13:04:01.141Z,18.96
2018-10-07T13:06:28.797Z,19.10
2018-10-07T13:08:56.248Z,19.33
2018-10-07T13:11:23.706Z,19.38
2018-10-07T13:13:52.152Z,19.40
2018-10-07T13:16:19.617Z,19.38
2018-10-07T13:18:47.119Z,19.30
2018-10-07T13:21:14.648Z,19.26
2018-10-07T13:23:42.237Z,19.31
2018-10-07T13:26:10.702Z,19.29
2018-10-07T13:28:38.341Z,19.37
2018-10-07T13:31:05.948Z,19.44
2018-10-07T13:33:33.602Z,19.61
2018-10-07T13:36:01.174Z,19.59
2018-10-07T13:38:28.626Z,19.55
2018-10-07T13:40:56.099Z,19.68
2018-10-07T13:43:23.616Z,19.77
2018-10-07T13:45:51.145Z,19.80
2018-10-07T13:48:19.736Z,19.79
2018-10-07T13:50:47.685Z,19.69
2018-10-07T13:53:15.166Z,19.71
2018-10-07T13:55:42.780Z,19.78
2018-10-07T13:58:10.248Z,19.87
2018-10-07T14:00:37.695Z,20.11
2018-10-07T14:03:05.233Z,20.22
2018-10-07T14:05:32.809Z,20.28
2018-10-07T14:08:00.268Z,20.44
2018-10-07T14:10:27.765Z,20.67
2018-10-07T14:12:55.489Z,20.62
2018-10-07T14:15:22.920Z,20.20
2018-10-07T14:17:50.450Z,20.26
2018-10-07T14:20:18.025Z,20.23
2018-10-07T14:22:45.538Z,20.14
2018-10-07T14:25:12.988Z,20.29
2018-10-07T14:27:41.274Z,20.53
2018-10-07T14:30:08.753Z,20.75
2018-10-07T14:32:36.176Z,20.59
2018-10-07T14:35:03.649Z,20.61
2018-10-07T14:37:31.279Z,20.49
2018-10-07T14:39:58.786Z,20.34
2018-10-07T14:42:26.203Z,20.30
2018-10-07T14:44:53.606Z,20.22
2018-10-07T14:47:21.015Z,20.16
2018-10-07T14:49:48.542Z,20.12
2018-10-07T14:52:16.017Z,19.89
2018-10-07T14:54:43.582Z,19.60
2018-10-07T14:57:11.089Z,19.66
2018-10-07T14:59:38.577Z,19.62
2018-10-07T15:02:06.120Z,19.35
2018-10-07T15:04:33.623Z,19.26
2018-10-07T15:07:01.097Z,19.13
2018-10-07T15:09:28.595Z,19.14
2018-10-07T15:11:56.078Z,19.01
2018-10-07T15:14:23.604Z,19.02
2018-10-07T15:16:51.479Z,19.01
2018-10-07T15:19:18.923Z,18.98
2018-10-07T15:21:46.432Z,19.03
2018-10-07T15:24:13.936Z,19.07
2018-10-07T15:26:41.380Z,19.03
2018-10-07T15:29:08.949Z,19.05
2018-10-07T15:31:37.971Z,19.05
2018-10-07T15:34:05.523Z,18.95
2018-10-07T15:36:33.022Z,18.83
2018-10-07T15:39:00.489Z,18.80
2018-10-07T15:41:27.895Z,18.78
2018-10-07T15:43:55.321Z,18.72
2018-10-07T15:46:23.373Z,18.78
2018-10-07T15:48:50.891Z,18.78
2018-10-07T15:51:18.384Z,18.74
2018-10-07T15:53:45.900Z,18.72
2018-10-07T15:56:13.428Z,18.75
2018-10-07T15:58:40.931Z,18.77
2018-10-07T16:01:08.454Z,18.79
2018-10-07T16:03:36.213Z,18.74
2018-10-07T16:06:03.664Z,18.71
2018-10-07T16:08:31.119Z,18.60
2018-10-07T16:10:58.594Z,18.57
2018-10-07T16:13:26.204Z,18.62
2018-10-07T16:15:53.712Z,18.63
2018-10-07T16:18:21.216Z,18.59
2018-10-07T16:20:48.589Z,18.58
2018-10-07T16:23:16.225Z,18.57
2018-10-07T16:25:43.807Z,18.59
2018-10-07T16:28:11.825Z,18.51
2018-10-07T16:30:39.770Z,18.47
2018-10-07T16:33:07.202Z,18.45
2018-10-07T16:35:34.671Z,18.38
2018-10-07T16:38:02.107Z,18.39
2018-10-07T16:40:29.599Z,18.43
2018-10-07T16:42:57.225Z,18.38
2018-10-07T16:45:24.719Z,18.42
2018-10-07T16:47:52.634Z,18.47
2018-10-07T16:50:20.390Z,18.50
2018-10-07T16:52:48.145Z,18.52
2018-10-07T16:55:15.625Z,18.51
2018-10-07T16:57:43.109Z,18.57
2018-10-07T17:00:10.617Z,18.57
2018-10-07T17:02:38.183Z,18.56
2018-10-07T17:05:05.797Z,18.51
2018-10-07T17:07:33.427Z,18.48
2018-10-07T17:10:00.842Z,18.46
2018-10-07T17:12:28.516Z,18.43
2018-10-07T17:14:56.043Z,18.42
2018-10-07T17:17:23.591Z,18.36
2018-10-07T17:19:51.105Z,18.29
2018-10-07T17:22:18.594Z,18.26
2018-10-07T17:24:46.066Z,18.22
2018-10-07T17:27:13.709Z,18.20
2018-10-07T17:29:41.237Z,18.18
2018-10-07T17:32:08.721Z,18.15
2018-10-07T17:34:36.260Z,18.15
2018-10-07T17:37:03.787Z,18.15
2018-10-07T17:39:31.388Z,18.12
2018-10-07T17:41:59.177Z,18.06
2018-10-07T17:44:26.708Z,18.01
2018-10-07T17:46:54.354Z,18.00
2018-10-07T17:49:21.917Z,17.93
2018-10-07T17:51:49.410Z,17.88
2018-10-07T17:54:16.860Z,17.88
2018-10-07T17:56:45.280Z,17.85
2018-10-07T17:59:12.802Z,17.82
2018-10-07T18:01:40.322Z,17.83
2018-10-07T18:04:07.865Z,17.88
2018-10-07T18:06:35.396Z,17.89
2018-10-07T18:09:03.042Z,17.92
2018-10-07T18:11:30.605Z,17.91
2018-10-07T18:13:58.181Z,17.95
2018-10-07T18:16:25.674Z,17.91
2018-10-07T18:18:53.180Z,17.85
2018-10-07T18:21:20.709Z,17.81
2018-10-07T18:23:48.208Z,17.73
2018-10-07T18:26:15.653Z,17.69
2018-10-07T18:28:43.166Z,17.71
2018-10-07T18:31:10.663Z,17.68
2018-10-07T18:33:38.103Z,17.65
2018-10-07T18:36:05.570Z,17.64
2018-10-07T18:38:33.228Z,17.65
2018-10-07T18:41:00.660Z,17.63
2018-10-07T18:43:28.119Z,17.59
2018-10-07T18:45:55.674Z,17.46
2018-10-07T18:48:23.142Z,17.42
2018-10-07T18:50:50.633Z,17.44
2018-10-07T18:56:20.565Z,17.51
2018-10-07T18:58:49.412Z,17.53
2018-10-07T19:01:17.399Z,17.48
2018-10-07T19:03:45.682Z,17.45
2018-10-07T19:06:13.313Z,17.42
2018-10-07T19:08:40.791Z,17.43
2018-10-07T19:11:08.736Z,17.42
2018-10-07T19:13:36.301Z,17.43
2018-10-07T19:16:03.861Z,17.40
2018-10-07T19:18:31.363Z,17.38
2018-10-07T19:23:32.465Z,17.25
2018-10-07T19:26:00.055Z,17.23
2018-10-07T19:28:27.505Z,17.17
2018-10-07T19:30:55.303Z,17.23
2018-10-07T19:33:22.762Z,17.27
2018-10-07T19:35:50.620Z,17.31
2018-10-07T19:38:19.360Z,17.33
2018-10-07T19:40:48.404Z,17.32
2018-10-07T19:43:16.099Z,17.32
2018-10-07T19:45:43.554Z,17.35
2018-10-07T19:48:11.002Z,17.35
2018-10-07T19:50:38.628Z,17.32
2018-10-07T19:53:06.135Z,17.30
2018-10-07T19:55:33.600Z,17.24
2018-10-07T19:58:01.547Z,17.25
2018-10-07T20:00:29.224Z,17.29
2018-10-07T20:02:56.685Z,17.28
2018-10-07T20:05:24.123Z,17.14
2018-10-07T20:07:51.996Z,17.16
2018-10-07T20:10:20.261Z,17.19
2018-10-07T20:12:47.769Z,17.15
2018-10-07T20:15:15.272Z,17.21
2018-10-07T20:17:43.652Z,17.22
2018-10-07T20:20:11.166Z,17.25
2018-10-07T20:22:38.618Z,17.27
2018-10-07T20:25:06.124Z,17.15
2018-10-07T20:27:33.563Z,17.05
2018-10-07T20:30:01.065Z,16.94
2018-10-07T20:32:28.468Z,16.93
2018-10-07T20:34:56.022Z,16.91
2018-10-07T20:37:23.512Z,16.90
2018-10-07T20:39:51.950Z,16.93
2018-10-07T20:42:19.377Z,16.96
2018-10-07T20:44:46.818Z,16.99
2018-10-07T20:47:14.325Z,16.97
2018-10-07T20:49:45.758Z,16.95
2018-10-07T20:52:14.564Z,16.89
2018-10-07T20:54:42.465Z,16.85
2018-10-07T20:57:10.022Z,16.83
2018-10-07T20:59:37.439Z,16.82
2018-10-07T21:02:04.934Z,16.80
2018-10-07T21:04:32.382Z,16.84
2018-10-07T21:06:59.951Z,16.87
2018-10-07T21:09:27.350Z,16.84
2018-10-07T21:11:54.865Z,16.84
2018-10-07T21:14:22.637Z,16.81
2018-10-07T21:16:50.083Z,16.84
2018-10-07T21:19:17.520Z,16.88
2018-10-07T21:21:45.051Z,16.87
2018-10-07T21:24:12.527Z,16.85
2018-10-07T21:26:40.030Z,16.79
2018-10-07T21:29:07.451Z,16.79
2018-10-07T21:31:34.951Z,16.79
2018-10-07T21:34:02.411Z,16.78
2018-10-07T21:36:29.892Z,16.75
2018-10-07T21:38:57.317Z,16.81
2018-10-07T21:41:24.898Z,16.84
2018-10-07T21:43:52.282Z,16.82
2018-10-07T21:46:19.793Z,16.77
2018-10-07T21:48:47.205Z,16.74
2018-10-07T21:51:14.674Z,16.65
2018-10-07T21:53:42.326Z,16.59
2018-10-07T21:56:09.804Z,16.59
2018-10-07T21:58:37.238Z,16.60
2018-10-07T22:01:04.832Z,16.67
2018-10-07T22:03:32.308Z,16.68
2018-10-07T22:05:59.801Z,16.65
2018-10-07T22:08:27.269Z,16.64
2018-10-07T22:10:54.786Z,16.68
2018-10-07T22:13:22.224Z,16.68
2018-10-07T22:15:50.007Z,16.43
2018-10-07T22:18:17.507Z,16.25
2018-10-07T22:20:44.990Z,16.23
2018-10-07T22:23:12.472Z,16.18
2018-10-07T22:25:39.956Z,16.29
2018-10-07T22:28:07.489Z,16.40
2018-10-07T22:30:34.987Z,16.40
2018-10-07T22:33:02.437Z,16.36
2018-10-07T22:35:30.005Z,16.38
2018-10-07T22:37:57.574Z,16.43
2018-10-07T22:40:25.063Z,16.42
2018-10-07T22:42:52.537Z,16.45
2018-10-07T22:45:19.998Z,16.50
2018-10-07T22:47:47.495Z,16.51
2018-10-07T22:50:14.947Z,16.54
2018-10-07T22:52:42.400Z,16.52
2018-10-07T22:55:09.841Z,16.49
2018-10-07T22:57:37.295Z,16.48
2018-10-07T23:00:05.258Z,16.48
2018-10-07T23:02:32.676Z,16.49
2018-10-07T23:05:00.163Z,16.47
2018-10-07T23:07:27.610Z,16.50
2018-10-07T23:09:55.049Z,16.50
2018-10-07T23:12:22.495Z,16.48
2018-10-07T23:14:49.956Z,16.44
2018-10-07T23:17:17.459Z,16.45
2018-10-07T23:19:44.937Z,16.39
2018-10-07T23:22:12.403Z,16.34
2018-10-07T23:24:39.813Z,16.29
2018-10-07T23:27:07.411Z,16.24
2018-10-07T23:29:34.853Z,16.27
2018-10-07T23:32:02.365Z,16.35
2018-10-07T23:34:30.171Z,16.38
2018-10-07T23:36:57.656Z,16.34
2018-10-07T23:39:25.167Z,16.34
2018-10-07T23:41:52.651Z,16.37
2018-10-07T23:44:20.119Z,16.38
2018-10-07T23:46:47.575Z,16.41
2018-10-07T23:49:15.101Z,16.43
2018-10-07T23:51:42.674Z,16.42
2018-10-07T23:54:10.072Z,16.38
2018-10-07T23:56:37.593Z,16.38
2018-10-07T23:59:05.068Z,16.43
